Miami International Airport Miami US
ICAO: KMIA
IATA: MIA
Category: Large
Scheduled Services: Yes

Elevation: 8 ft
TransAlt. 18000 ft.

Airport Communications:
APP:120.5
ATIS:119.15
CLNC DEL:120.35
DEP:119.45
GND:121.8
TWR:118.3
UNICOM:123

KMIA Zoom In..

Runways:

(A) RW 08L length 8600 ft width 150 ft
LOC 109.30 / hdg 92

(B) RW 08R length 10506 ft width 200 ft
ILS 110.30 / hdg 92

(C) RW 09 length 13016 ft width 150 ft
ILS 110.90 / hdg 92

(D) RW 12 length 9355 ft width 150 ft
ILS 108.90 / hdg 124

(E) RW 26L length 10506 ft width 200 ft
ILS 109.10 / hdg 272

(F) RW 26R length 8600 ft width 150 ft
LOC 109.30 / hdg 272

(G) RW 27 length 13016 ft width 150 ft
ILS 109.50 / hdg 272

(H) RW 30 length 9355 ft width 150 ft
ILS 111.70 / hdg 304

Location; KMIA
Day. 24 / Time. 07.53 Zulu
* Altimeter: 30.03
* Temperature: 25° c. 77°f.
* Wind from: 120° Speed 05 kn.
Dewpoint: 24° c.
Visibility: 10 Statute Miles.
Clouds: Few 1700 ft.
Clouds: Few 4100 ft.
Clouds: Scattered 8000 ft.
Clouds: Broken 25000 ft.

KMIA 240753Z 12005KT 10SM FEW017 FEW041 SCT080 BKN250 25/24 A3003 RMK AO2 RAE0659 SLP170 P0000 T02500239 $


Wind From 120°
Speed 05 kn.

 
 
jpsmedia.com for Web Design SOUNDCLOUD worldairports.se 2018   terms of use